Time;durP1;ratioP1;P1;durP2;ratioP2;P2;SDS_P1;SDS_P2;PMS_P1;PMS_P2;Temp;Humidity;BMP_temperature;BMP_pressure;BME280_temperature;BME280_humidity;BME280_pressure;Samples;Min_cycle;Max_cycle;Signal;HPM_P1;HPM_P2
2023/08/04 00:00:11;;;;;;;1.93;1.30;;;20.50;72.50;;;;;;6057613;23;20477;-50
2023/08/04 00:02:40;;;;;;;2.20;1.30;;;20.50;72.40;;;;;;6057424;23;20381;-50
2023/08/04 00:05:09;;;;;;;1.47;1.10;;;20.40;72.40;;;;;;6030835;23;20689;-49
2023/08/04 00:07:38;;;;;;;2.27;1.30;;;20.40;72.40;;;;;;6058347;23;20430;-49
2023/08/04 00:10:08;;;;;;;2.53;1.10;;;20.40;73.60;;;;;;6057555;23;20479;-48
2023/08/04 00:12:37;;;;;;;4.00;1.23;;;20.50;72.50;;;;;;6056340;23;20373;-50
2023/08/04 00:15:07;;;;;;;1.47;1.30;;;20.50;72.60;;;;;;6057138;22;20825;-49
2023/08/04 00:17:38;;;;;;;2.43;1.47;;;20.50;72.50;;;;;;6057808;23;20401;-50
2023/08/04 00:20:10;;;;;;;2.03;1.30;;;20.40;72.40;;;;;;6056197;23;20777;-53
2023/08/04 00:22:39;;;;;;;1.60;1.30;;;20.50;72.50;;;;;;6058125;23;20717;-50
2023/08/04 00:25:09;;;;;;;2.00;1.50;;;20.50;72.40;;;;;;6056878;23;20412;-50
2023/08/04 00:27:37;;;;;;;1.77;1.10;;;20.40;72.30;;;;;;6057418;23;20775;-51
2023/08/04 00:30:09;;;;;;;1.43;1.00;;;20.40;72.30;;;;;;6055954;23;20438;-50
2023/08/04 00:32:39;;;;;;;2.63;1.43;;;20.40;72.30;;;;;;6058416;23;20414;-51
2023/08/04 00:35:08;;;;;;;2.50;1.63;;;20.40;72.30;;;;;;6054040;23;20398;-51
2023/08/04 00:37:36;;;;;;;2.70;1.50;;;20.40;73.60;;;;;;6055964;23;20531;-50
2023/08/04 00:40:06;;;;;;;3.63;1.17;;;20.40;72.20;;;;;;6057439;23;20420;-50
2023/08/04 00:42:34;;;;;;;2.27;1.50;;;20.40;72.30;;;;;;6057284;23;20397;-49
2023/08/04 00:45:03;;;;;;;1.53;1.03;;;20.40;72.30;;;;;;6058635;23;20434;-49
2023/08/04 00:47:35;;;;;;;2.87;1.50;;;20.40;72.20;;;;;;6056922;23;20415;-52
2023/08/04 00:50:09;;;;;;;1.40;1.13;;;20.40;72.20;;;;;;6055845;23;20905;-49
2023/08/04 00:52:40;;;;;;;2.00;1.00;;;20.40;72.20;;;;;;6055485;23;20416;-49
2023/08/04 00:55:09;;;;;;;3.00;1.13;;;20.40;72.20;;;;;;6056876;23;20382;-49
2023/08/04 00:57:38;;;;;;;1.90;1.20;;;20.40;72.10;;;;;;6057371;23;20413;-49
2023/08/04 01:00:08;;;;;;;2.87;1.60;;;20.40;72.20;;;;;;6057990;23;20519;-49
2023/08/04 01:02:37;;;;;;;2.27;1.70;;;20.40;72.20;;;;;;6057116;23;20868;-49
2023/08/04 01:05:08;;;;;;;2.80;1.57;;;20.40;72.20;;;;;;6056659;23;20389;-48
2023/08/04 01:07:45;;;;;;;1.97;1.40;;;20.40;72.20;;;;;;6057468;23;20499;-50
2023/08/04 01:10:19;;;;;;;2.43;1.50;;;20.40;72.20;;;;;;6057604;23;20792;-49
2023/08/04 01:12:57;;;;;;;3.43;2.10;;;20.40;72.10;;;;;;6056630;23;20442;-49
2023/08/04 01:15:26;;;;;;;2.90;1.53;;;20.40;72.10;;;;;;6057632;23;20400;-49
2023/08/04 01:17:55;;;;;;;1.70;1.30;;;20.40;72.10;;;;;;6057188;23;20512;-50
2023/08/04 01:20:26;;;;;;;2.30;1.47;;;20.40;72.10;;;;;;6055547;23;20555;-49
2023/08/04 01:22:56;;;;;;;5.27;1.50;;;20.40;72.10;;;;;;6057058;23;20381;-50
2023/08/04 01:25:28;;;;;;;2.60;1.93;;;20.40;72.20;;;;;;6056995;23;20515;-48
2023/08/04 01:28:01;;;;;;;4.10;1.53;;;20.40;72.10;;;;;;6057891;23;20534;-49
2023/08/04 01:30:30;;;;;;;1.90;1.13;;;20.40;72.00;;;;;;6079477;23;20436;-50
2023/08/04 01:32:59;;;;;;;3.20;1.53;;;20.40;72.10;;;;;;6057300;23;20719;-49
2023/08/04 01:35:28;;;;;;;2.47;1.30;;;20.40;72.10;;;;;;6057564;23;20411;-49
2023/08/04 01:37:58;;;;;;;2.13;1.40;;;20.40;72.00;;;;;;6057782;23;20420;-49
2023/08/04 01:40:26;;;;;;;2.30;1.13;;;20.30;72.00;;;;;;6058621;23;20527;-49
2023/08/04 01:42:55;;;;;;;2.00;1.23;;;20.40;72.00;;;;;;6057838;23;20399;-50
2023/08/04 01:45:23;;;;;;;2.43;1.47;;;20.40;72.00;;;;;;6059328;23;20406;-48
2023/08/04 01:47:52;;;;;;;2.80;1.60;;;20.40;72.00;;;;;;6057189;23;20497;-49
2023/08/04 01:50:21;;;;;;;3.93;1.40;;;20.40;72.00;;;;;;6055484;23;20443;-51
2023/08/04 01:52:49;;;;;;;1.57;1.40;;;20.40;71.90;;;;;;6056444;23;20396;-50
2023/08/04 01:55:20;;;;;;;1.67;1.20;;;20.30;71.90;;;;;;6058290;23;20517;-49
2023/08/04 01:57:48;;;;;;;1.70;1.20;;;20.30;71.80;;;;;;6056519;23;20400;-50
2023/08/04 02:00:18;;;;;;;2.30;1.40;;;20.30;71.90;;;;;;6055930;23;20440;-49
2023/08/04 02:02:47;;;;;;;2.47;1.23;;;20.40;71.80;;;;;;6058685;23;20920;-49
2023/08/04 02:05:16;;;;;;;2.20;1.30;;;20.30;71.80;;;;;;6056616;23;20408;-50
2023/08/04 02:07:45;;;;;;;2.20;1.60;;;20.30;71.70;;;;;;6081241;23;20944;-48
2023/08/04 02:10:13;;;;;;;4.10;1.50;;;20.30;71.80;;;;;;6056676;23;20440;-50
2023/08/04 02:12:43;;;;;;;2.77;1.30;;;20.30;71.70;;;;;;6031440;23;20758;-50
2023/08/04 02:15:12;;;;;;;3.70;1.30;;;20.30;71.70;;;;;;6057824;23;20764;-50
2023/08/04 02:17:41;;;;;;;2.00;1.30;;;20.30;71.60;;;;;;6057309;23;20417;-49
2023/08/04 02:20:10;;;;;;;1.50;1.20;;;20.30;71.70;;;;;;6056304;22;20482;-51
2023/08/04 02:22:39;;;;;;;2.30;1.27;;;20.30;71.60;;;;;;6057249;23;20876;-48
2023/08/04 02:25:08;;;;;;;2.57;1.70;;;20.30;71.80;;;;;;6058475;23;20395;-50
2023/08/04 02:27:37;;;;;;;1.77;1.20;;;20.30;71.70;;;;;;6058612;23;20409;-49
2023/08/04 02:30:08;;;;;;;5.87;1.90;;;20.30;71.60;;;;;;6057264;23;20456;-51
2023/08/04 02:32:37;;;;;;;1.73;1.17;;;20.30;71.60;;;;;;6055819;23;20421;-49
2023/08/04 02:35:06;;;;;;;1.60;1.50;;;20.30;71.60;;;;;;6056042;23;20436;-51
2023/08/04 02:37:35;;;;;;;3.30;1.90;;;20.30;71.70;;;;;;6058620;23;20425;-51
2023/08/04 02:40:05;;;;;;;1.73;1.37;;;20.30;71.60;;;;;;6058424;23;20393;-50
2023/08/04 02:42:33;;;;;;;2.77;1.60;;;20.30;71.50;;;;;;6056905;23;20399;-49
2023/08/04 02:45:02;;;;;;;2.10;1.40;;;20.30;71.60;;;;;;6057421;23;20953;-50
2023/08/04 02:47:32;;;;;;;3.30;1.80;;;20.30;71.50;;;;;;6056785;23;20424;-48
2023/08/04 02:50:00;;;;;;;2.27;1.57;;;20.30;71.50;;;;;;6056180;23;20393;-50
2023/08/04 02:52:29;;;;;;;5.83;1.93;;;20.30;71.50;;;;;;6056644;23;20427;-49
2023/08/04 02:54:57;;;;;;;3.33;1.97;;;20.20;71.40;;;;;;6058674;23;20394;-50
2023/08/04 02:57:30;;;;;;;6.37;1.80;;;20.30;71.40;;;;;;6056950;23;20904;-52
2023/08/04 02:59:59;;;;;;;1.60;1.30;;;20.30;71.40;;;;;;6056919;23;20729;-49
2023/08/04 03:02:28;;;;;;;2.40;1.80;;;20.30;71.50;;;;;;6056529;23;20407;-49
2023/08/04 03:04:58;;;;;;;2.63;1.63;;;20.30;71.50;;;;;;6056230;23;20716;-48
2023/08/04 03:07:27;;;;;;;2.20;1.47;;;20.30;71.50;;;;;;6058998;23;20406;-49
2023/08/04 03:09:55;;;;;;;1.57;1.27;;;20.30;71.30;;;;;;6057580;23;20401;-49
2023/08/04 03:12:24;;;;;;;2.00;1.50;;;20.30;71.40;;;;;;6056920;23;20415;-50
2023/08/04 03:14:52;;;;;;;2.43;1.60;;;20.30;71.40;;;;;;6056852;23;20397;-51
2023/08/04 03:17:21;;;;;;;2.40;1.73;;;20.30;71.40;;;;;;6057426;23;20413;-48
2023/08/04 03:19:50;;;;;;;1.80;1.30;;;20.30;71.30;;;;;;6055424;23;20407;-49
2023/08/04 03:22:20;;;;;;;2.30;1.37;;;20.30;71.40;;;;;;6057241;23;20689;-50
2023/08/04 03:24:48;;;;;;;2.93;1.20;;;20.20;71.20;;;;;;6057375;23;20407;-49
2023/08/04 03:27:17;;;;;;;3.10;1.80;;;20.20;71.20;;;;;;6056775;23;20725;-49
2023/08/04 03:29:46;;;;;;;4.07;1.87;;;20.20;71.10;;;;;;6056152;23;20433;-49
2023/08/04 03:32:15;;;;;;;2.33;1.30;;;20.20;71.20;;;;;;6056692;23;20494;-48
2023/08/04 03:34:44;;;;;;;2.60;1.83;;;20.30;71.40;;;;;;6055263;23;20390;-49
2023/08/04 03:37:12;;;;;;;1.97;1.40;;;20.20;71.20;;;;;;6057415;23;20416;-50
2023/08/04 03:39:42;;;;;;;2.33;1.60;;;20.20;71.00;;;;;;6057201;23;20464;-52
2023/08/04 03:42:11;;;;;;;1.73;1.30;;;20.20;71.00;;;;;;6157707;23;20401;-51
2023/08/04 03:44:39;;;;;;;3.30;1.83;;;20.20;71.00;;;;;;6057077;23;20377;-50
2023/08/04 03:47:08;;;;;;;3.30;1.33;;;20.20;71.00;;;;;;6057469;23;20426;-49
2023/08/04 03:49:36;;;;;;;3.23;1.97;;;20.20;71.00;;;;;;6081713;23;20739;-50
2023/08/04 03:52:08;;;;;;;2.80;1.70;;;20.20;71.10;;;;;;6056700;22;20533;-50
2023/08/04 03:54:37;;;;;;;2.30;1.60;;;20.20;71.10;;;;;;6081345;23;20595;-48
2023/08/04 03:57:07;;;;;;;1.73;1.37;;;20.20;71.00;;;;;;6055908;23;20523;-50
2023/08/04 03:59:36;;;;;;;2.43;1.47;;;20.20;71.00;;;;;;6058312;23;20373;-50
2023/08/04 04:02:05;;;;;;;3.30;1.80;;;20.20;71.00;;;;;;6056805;22;20436;-50
2023/08/04 04:04:33;;;;;;;2.03;1.27;;;20.20;71.00;;;;;;6059178;23;20450;-51
2023/08/04 04:07:02;;;;;;;2.00;1.37;;;20.20;71.00;;;;;;6059138;23;20840;-50
2023/08/04 04:09:30;;;;;;;3.50;1.57;;;20.20;71.00;;;;;;6056324;23;20483;-49
2023/08/04 04:11:58;;;;;;;2.23;1.40;;;20.20;71.00;;;;;;6056264;22;20454;-50
2023/08/04 04:14:28;;;;;;;2.67;1.50;;;20.20;71.00;;;;;;6058009;23;20384;-50
2023/08/04 04:16:57;;;;;;;2.33;1.07;;;20.20;70.90;;;;;;6057181;23;20446;-48
2023/08/04 04:19:25;;;;;;;3.10;1.70;;;20.20;70.90;;;;;;6081252;23;20407;-51
2023/08/04 04:21:54;;;;;;;2.40;1.23;;;20.20;71.00;;;;;;6056346;22;20971;-48
2023/08/04 04:24:22;;;;;;;1.70;1.10;;;20.20;70.90;;;;;;6057822;23;20460;-50
2023/08/04 04:26:51;;;;;;;2.03;1.20;;;20.20;70.80;;;;;;6057035;22;20532;-49
2023/08/04 04:29:19;;;;;;;4.53;1.80;;;20.20;70.80;;;;;;6057555;23;20386;-50
2023/08/04 04:31:49;;;;;;;1.90;1.37;;;20.20;70.80;;;;;;6056785;22;20533;-50
2023/08/04 04:34:18;;;;;;;2.40;1.67;;;20.20;70.80;;;;;;6057591;23;20431;-51
2023/08/04 04:36:46;;;;;;;2.93;1.70;;;20.20;70.80;;;;;;6056695;22;20791;-50
2023/08/04 04:39:14;;;;;;;3.10;1.80;;;20.20;70.90;;;;;;6082409;23;20385;-50
2023/08/04 04:41:43;;;;;;;3.13;1.50;;;20.20;70.80;;;;;;6032319;23;20919;-49
2023/08/04 04:44:11;;;;;;;4.10;1.80;;;20.10;70.70;;;;;;6082621;23;20369;-49
2023/08/04 04:46:40;;;;;;;3.70;1.60;;;20.10;70.70;;;;;;6056389;22;21034;-53
2023/08/04 04:49:10;;;;;;;2.77;1.67;;;20.10;71.90;;;;;;6057261;23;20400;-50
2023/08/04 04:51:38;;;;;;;1.90;1.27;;;20.10;70.60;;;;;;6056587;22;20532;-49
2023/08/04 04:54:06;;;;;;;2.47;1.60;;;20.10;71.30;;;;;;6057854;23;20389;-50
2023/08/04 04:56:35;;;;;;;1.90;1.50;;;20.10;70.70;;;;;;6081230;23;20448;-49
2023/08/04 04:59:04;;;;;;;2.33;1.50;;;20.10;70.70;;;;;;6080874;23;20373;-48
2023/08/04 05:01:36;;;;;;;1.93;1.37;;;20.10;70.60;;;;;;6058449;23;20434;-50
2023/08/04 05:04:04;;;;;;;3.70;1.33;;;20.10;70.60;;;;;;6057457;23;20388;-50
2023/08/04 05:06:34;;;;;;;3.60;1.80;;;20.10;70.50;;;;;;6057574;23;20451;-49
2023/08/04 05:09:03;;;;;;;3.30;1.93;;;20.10;70.60;;;;;;6059513;23;20400;-49
2023/08/04 05:11:31;;;;;;;6.70;2.03;;;20.10;70.60;;;;;;6056315;23;20450;-49
2023/08/04 05:14:00;;;;;;;2.80;1.70;;;20.10;70.70;;;;;;6056818;23;20450;-49
2023/08/04 05:16:32;;;;;;;2.80;1.87;;;20.10;70.60;;;;;;6057668;23;20538;-49
2023/08/04 05:19:00;;;;;;;2.50;1.60;;;20.10;71.90;;;;;;6081034;23;20833;-48
2023/08/04 05:21:29;;;;;;;3.53;1.80;;;20.10;70.70;;;;;;6057236;22;20438;-50
2023/08/04 05:23:59;;;;;;;3.37;2.27;;;20.10;70.60;;;;;;6056750;23;20489;-49
2023/08/04 05:26:27;;;;;;;2.63;2.03;;;20.10;70.60;;;;;;6056394;23;21009;-51
2023/08/04 05:28:55;;;;;;;2.37;1.77;;;20.10;70.50;;;;;;6058986;23;20752;-50
2023/08/04 05:31:24;;;;;;;1.80;1.33;;;20.00;70.50;;;;;;6056704;23;20444;-50
2023/08/04 05:33:54;;;;;;;2.10;1.60;;;20.10;70.60;;;;;;6058517;23;20459;-50
2023/08/04 05:36:23;;;;;;;2.80;2.20;;;20.10;70.50;;;;;;6081061;23;20965;-52
2023/08/04 05:38:52;;;;;;;1.60;1.43;;;20.10;70.50;;;;;;6057906;23;20409;-48
2023/08/04 05:41:21;;;;;;;2.10;1.47;;;20.10;70.60;;;;;;6056437;22;20441;-49
2023/08/04 05:43:50;;;;;;;2.30;1.50;;;20.10;70.60;;;;;;6057296;23;20439;-49
2023/08/04 05:46:18;;;;;;;3.03;1.80;;;20.00;70.40;;;;;;6057461;23;20531;-49
2023/08/04 05:48:47;;;;;;;3.10;1.53;;;20.00;70.50;;;;;;6057163;23;20390;-51
2023/08/04 05:51:16;;;;;;;2.00;1.80;;;20.10;70.50;;;;;;6081113;23;20923;-50
2023/08/04 05:53:44;;;;;;;2.93;1.40;;;20.00;70.50;;;;;;6056933;23;20401;-48
2023/08/04 05:56:13;;;;;;;3.10;1.67;;;20.10;70.50;;;;;;6057039;22;20444;-50
2023/08/04 05:58:43;;;;;;;2.70;1.37;;;20.00;70.50;;;;;;6057053;23;20410;-51
2023/08/04 06:01:11;;;;;;;2.20;1.20;;;20.00;70.40;;;;;;6055301;22;20523;-49
2023/08/04 06:03:40;;;;;;;1.90;1.70;;;20.00;70.50;;;;;;6057847;23;20396;-49
2023/08/04 06:06:08;;;;;;;3.67;1.73;;;20.00;70.40;;;;;;6057563;23;20498;-49
2023/08/04 06:08:37;;;;;;;2.20;1.57;;;20.00;70.50;;;;;;6058487;23;20721;-48
2023/08/04 06:11:05;;;;;;;2.70;1.87;;;20.00;70.50;;;;;;6056996;23;20440;-50
2023/08/04 06:13:34;;;;;;;2.57;1.53;;;20.00;70.50;;;;;;6058054;23;20419;-49
2023/08/04 06:16:04;;;;;;;1.70;1.30;;;20.00;70.50;;;;;;6030509;22;20444;-50
2023/08/04 06:18:33;;;;;;;3.70;1.80;;;20.00;70.40;;;;;;6057541;23;20863;-48
2023/08/04 06:21:02;;;;;;;1.80;1.50;;;20.00;70.40;;;;;;6056999;23;20838;-49
2023/08/04 06:23:30;;;;;;;2.87;1.77;;;20.00;70.40;;;;;;6059338;23;20394;-49
2023/08/04 06:25:59;;;;;;;3.77;2.40;;;20.00;70.40;;;;;;6056749;22;20436;-48
2023/08/04 06:28:27;;;;;;;1.80;1.37;;;20.00;70.40;;;;;;6056219;23;20470;-48
2023/08/04 06:30:55;;;;;;;2.43;1.60;;;20.00;70.40;;;;;;6081729;23;20666;-50
2023/08/04 06:33:25;;;;;;;1.70;1.23;;;20.00;70.50;;;;;;6056018;23;20939;-51
2023/08/04 06:35:53;;;;;;;2.50;1.83;;;20.00;70.50;;;;;;6056955;23;20760;-49
2023/08/04 06:38:22;;;;;;;3.10;1.47;;;20.00;70.50;;;;;;6058997;23;20706;-52
2023/08/04 06:40:51;;;;;;;2.03;1.57;;;20.00;70.50;;;;;;6058424;23;20421;-50
2023/08/04 06:43:20;;;;;;;2.67;1.60;;;20.00;70.50;;;;;;6056896;23;20395;-50
2023/08/04 06:45:48;;;;;;;1.67;1.40;;;20.00;70.40;;;;;;6057371;23;20441;-49
2023/08/04 06:48:17;;;;;;;2.03;1.73;;;20.00;70.40;;;;;;6056168;23;20396;-49
2023/08/04 06:50:46;;;;;;;2.60;1.57;;;20.00;70.50;;;;;;6057172;23;20461;-49
2023/08/04 06:53:15;;;;;;;2.60;1.57;;;20.00;70.50;;;;;;6057702;23;20425;-50
2023/08/04 06:55:44;;;;;;;2.90;1.57;;;19.90;70.40;;;;;;6057587;23;20405;-49
2023/08/04 06:58:14;;;;;;;4.50;2.17;;;19.90;70.40;;;;;;6057409;23;20424;-51
2023/08/04 07:00:43;;;;;;;4.33;1.73;;;19.90;70.40;;;;;;6057510;23;20421;-50
2023/08/04 07:03:12;;;;;;;1.80;1.50;;;19.90;70.50;;;;;;6056455;23;20864;-49
2023/08/04 07:05:41;;;;;;;1.93;1.33;;;19.90;70.30;;;;;;6056612;23;20498;-50
2023/08/04 07:10:52;;;;;;;4.23;1.90;;;19.90;70.40;;;;;;6147895;23;21013;-49
2023/08/04 07:13:21;;;;;;;2.27;1.70;;;19.90;71.60;;;;;;6145397;23;20728;-49
2023/08/04 07:15:55;;;;;;;2.70;1.63;;;19.90;70.40;;;;;;6131258;22;20486;-49
2023/08/04 07:18:24;;;;;;;4.37;2.13;;;19.90;70.40;;;;;;6115318;23;20386;-49
2023/08/04 07:20:53;;;;;;;1.83;1.30;;;19.90;70.50;;;;;;6118151;23;20482;-50
2023/08/04 07:23:21;;;;;;;2.17;1.60;;;19.90;70.30;;;;;;6118374;23;20403;-47
2023/08/04 07:25:57;;;;;;;2.10;1.77;;;19.90;70.30;;;;;;6118834;23;20942;-48
2023/08/04 07:28:26;;;;;;;2.00;1.70;;;19.90;70.40;;;;;;6118404;23;20861;-49
2023/08/04 07:30:55;;;;;;;2.07;1.80;;;19.90;70.30;;;;;;6117253;23;20436;-49
2023/08/04 07:33:24;;;;;;;2.70;1.60;;;19.90;70.40;;;;;;6117462;23;20429;-49
2023/08/04 07:35:56;;;;;;;5.53;1.70;;;19.90;70.30;;;;;;6118371;23;20971;-49
2023/08/04 07:38:29;;;;;;;3.50;1.90;;;19.90;70.40;;;;;;6094246;23;20398;-49
2023/08/04 07:40:59;;;;;;;1.97;1.30;;;19.90;70.50;;;;;;6116908;23;20426;-49
2023/08/04 07:43:28;;;;;;;3.47;1.63;;;19.90;70.30;;;;;;6117472;23;20842;-49
2023/08/04 07:45:56;;;;;;;1.63;1.37;;;19.90;70.30;;;;;;6131872;23;20434;-49
2023/08/04 07:48:25;;;;;;;2.47;1.77;;;19.90;70.30;;;;;;6147134;23;20392;-48
2023/08/04 07:50:53;;;;;;;4.13;1.97;;;19.90;70.30;;;;;;6147578;23;20486;-49
2023/08/04 07:53:24;;;;;;;2.50;1.60;;;19.90;70.30;;;;;;6143501;23;20417;-49
2023/08/04 07:55:58;;;;;;;2.50;1.80;;;19.90;70.30;;;;;;6145436;22;20512;-49
2023/08/04 07:58:27;;;;;;;5.43;2.30;;;19.90;70.40;;;;;;6145190;23;20889;-48
2023/08/04 08:00:56;;;;;;;3.43;1.43;;;19.90;70.40;;;;;;6143816;23;20526;-48
2023/08/04 08:03:24;;;;;;;4.87;1.60;;;19.90;70.40;;;;;;6146551;23;20910;-48
2023/08/04 08:05:53;;;;;;;3.80;1.83;;;19.90;70.50;;;;;;6145708;23;20491;-49
2023/08/04 08:08:21;;;;;;;4.47;1.97;;;19.90;70.50;;;;;;6148104;23;20394;-49
2023/08/04 08:10:50;;;;;;;1.70;1.20;;;19.90;70.40;;;;;;6177781;22;20437;-49
2023/08/04 08:13:20;;;;;;;3.57;1.97;;;19.90;70.40;;;;;;6175323;23;20495;-49
2023/08/04 08:15:49;;;;;;;2.97;1.97;;;19.90;70.50;;;;;;6177553;23;20425;-48
2023/08/04 08:18:17;;;;;;;2.93;2.33;;;19.90;70.30;;;;;;6176590;23;20723;-49
2023/08/04 08:20:46;;;;;;;4.43;1.80;;;19.90;70.50;;;;;;6177327;23;20382;-49
2023/08/04 08:23:14;;;;;;;5.43;2.23;;;19.90;70.60;;;;;;6176035;23;20390;-49
2023/08/04 08:25:43;;;;;;;3.40;1.60;;;19.90;70.70;;;;;;6177876;23;20450;-49
2023/08/04 08:28:11;;;;;;;1.90;1.50;;;19.90;70.60;;;;;;6176990;23;20444;-49
2023/08/04 08:30:41;;;;;;;4.10;1.90;;;19.90;70.50;;;;;;6176638;23;20408;-49
2023/08/04 08:33:10;;;;;;;2.73;2.00;;;19.90;70.80;;;;;;6176872;23;20430;-53
2023/08/04 08:35:39;;;;;;;1.90;1.20;;;19.90;70.70;;;;;;6171390;22;20404;-50
2023/08/04 08:38:07;;;;;;;2.57;2.03;;;19.90;70.50;;;;;;6195925;23;20433;-50
2023/08/04 08:40:36;;;;;;;2.33;1.60;;;19.90;70.60;;;;;;6183862;23;20824;-51
2023/08/04 08:43:04;;;;;;;2.00;1.30;;;19.90;70.70;;;;;;6175819;23;20922;-50
2023/08/04 08:45:34;;;;;;;3.70;2.20;;;19.90;70.70;;;;;;6177685;23;20399;-50
2023/08/04 08:48:06;;;;;;;2.50;1.40;;;19.90;70.90;;;;;;6176565;23;20424;-52
2023/08/04 08:50:35;;;;;;;4.20;1.90;;;19.80;70.50;;;;;;6176965;23;20432;-50
2023/08/04 08:53:10;;;;;;;2.43;1.70;;;19.80;70.80;;;;;;6177274;23;20951;-51
2023/08/04 08:55:40;;;;;;;2.53;1.60;;;19.90;70.70;;;;;;6177735;23;20381;-50
2023/08/04 08:58:10;;;;;;;2.93;1.80;;;19.90;70.60;;;;;;6176448;23;20956;-50
2023/08/04 09:00:39;;;;;;;3.83;1.80;;;19.90;70.60;;;;;;6177886;23;20410;-51
2023/08/04 09:03:10;;;;;;;3.10;1.90;;;19.90;70.80;;;;;;6175945;23;20769;-50
2023/08/04 09:05:38;;;;;;;2.23;1.73;;;19.90;70.70;;;;;;6177230;23;20435;-51
2023/08/04 09:08:08;;;;;;;2.10;1.47;;;19.90;70.50;;;;;;6176073;22;20406;-50
2023/08/04 09:10:37;;;;;;;6.43;2.30;;;19.80;70.50;;;;;;6177451;23;20429;-51
2023/08/04 09:13:09;;;;;;;2.60;1.37;;;19.80;70.90;;;;;;6177287;22;20401;-52
2023/08/04 09:15:49;;;;;;;1.90;1.70;;;19.80;70.70;;;;;;6176142;23;20388;-51
2023/08/04 09:18:30;;;;;;;3.13;2.30;;;19.80;70.80;;;;;;6174061;23;20571;-49
2023/08/04 09:21:00;;;;;;;2.55;1.77;;;19.80;70.90;;;;;;6172320;23;20736;-68
2023/08/04 09:23:30;;;;;;;2.43;2.00;;;19.90;71.00;;;;;;6170386;23;20180;-68
2023/08/04 09:25:59;;;;;;;2.10;1.60;;;19.90;70.80;;;;;;6171044;23;20992;-68
2023/08/04 09:28:28;;;;;;;2.50;1.70;;;19.90;70.50;;;;;;6169421;23;20704;-68
2023/08/04 09:31:04;;;;;;;3.13;1.63;;;19.90;71.90;;;;;;6169302;23;20579;-68
2023/08/04 09:33:37;;;;;;;2.80;1.80;;;19.90;70.60;;;;;;6167304;23;20395;-68
2023/08/04 09:36:07;;;;;;;2.60;1.60;;;19.90;70.50;;;;;;6170526;23;20443;-68
2023/08/04 09:38:37;;;;;;;1.80;1.40;;;19.80;70.40;;;;;;6169045;23;20702;-68
2023/08/04 09:41:08;;;;;;;3.50;1.80;;;19.90;70.40;;;;;;6168190;23;20440;-68
2023/08/04 09:43:42;;;;;;;3.57;1.80;;;19.90;70.40;;;;;;6168438;23;20376;-68
2023/08/04 09:46:11;;;;;;;3.47;1.80;;;19.90;70.40;;;;;;6166238;23;20922;-68
2023/08/04 09:48:41;;;;;;;3.27;1.10;;;19.90;70.50;;;;;;6167405;23;20433;-68
2023/08/04 09:51:12;;;;;;;4.83;1.30;;;19.90;70.30;;;;;;6166794;23;20793;-68
2023/08/04 09:53:44;;;;;;;1.90;1.50;;;19.90;70.50;;;;;;6168495;23;20378;-68
2023/08/04 09:56:14;;;;;;;1.70;1.13;;;19.90;70.30;;;;;;6165822;23;20445;-68
2023/08/04 09:58:43;;;;;;;4.50;1.57;;;19.90;70.20;;;;;;6168810;23;20914;-68
2023/08/04 10:01:12;;;;;;;2.10;1.90;;;19.90;70.10;;;;;;6168508;23;20441;-68
2023/08/04 10:03:44;;;;;;;3.83;1.43;;;19.90;70.10;;;;;;6166969;23;20728;-67
2023/08/04 10:06:14;;;;;;;2.47;1.70;;;19.90;70.10;;;;;;6168570;23;20610;-68
2023/08/04 10:08:42;;;;;;;2.37;2.17;;;19.90;70.10;;;;;;6167322;23;20461;-67
2023/08/04 10:11:11;;;;;;;2.73;1.70;;;19.90;70.10;;;;;;6167599;23;20801;-68
2023/08/04 10:13:42;;;;;;;2.03;1.20;;;19.90;70.00;;;;;;6168527;23;20386;-68
2023/08/04 10:16:13;;;;;;;1.80;1.13;;;19.90;70.00;;;;;;6166685;23;20441;-68
2023/08/04 10:18:51;;;;;;;2.70;1.50;;;19.90;69.90;;;;;;6168126;23;20382;-67
2023/08/04 10:21:20;;;;;;;4.97;1.67;;;19.90;69.90;;;;;;6168881;23;20424;-68
2023/08/04 10:23:51;;;;;;;2.07;1.57;;;19.90;70.00;;;;;;6168291;23;20401;-68
2023/08/04 10:26:20;;;;;;;1.90;1.47;;;19.90;69.80;;;;;;6168475;23;20756;-68
2023/08/04 10:29:10;;;;;;;1.90;1.40;;;19.90;69.90;;;;;;6168828;23;20855;-67
2023/08/04 10:31:52;;;;;;;2.50;1.70;;;19.90;69.90;;;;;;6167040;23;20468;-67
2023/08/04 10:34:28;;;;;;;3.00;1.53;;;19.90;69.90;;;;;;6170492;23;20437;-67
2023/08/04 10:37:01;;;;;;;2.07;1.30;;;19.90;69.80;;;;;;6169106;23;20440;-68
2023/08/04 10:39:31;;;;;;;4.17;1.90;;;19.90;69.80;;;;;;6169405;23;20386;-69
2023/08/04 10:42:01;;;;;;;4.97;2.43;;;19.90;69.80;;;;;;6169182;23;20432;-69
2023/08/04 10:44:30;;;;;;;4.87;3.07;;;20.10;70.20;;;;;;6169424;23;20754;-70
2023/08/04 10:47:04;;;;;;;4.73;3.80;;;20.20;69.90;;;;;;6169011;23;20463;-69
2023/08/04 10:49:34;;;;;;;5.30;3.50;;;20.30;69.90;;;;;;6169875;23;20465;-69
2023/08/04 10:52:05;;;;;;;5.50;3.20;;;20.30;70.00;;;;;;6167897;23;20435;-67
2023/08/04 10:54:33;;;;;;;8.30;3.53;;;20.30;70.40;;;;;;6167282;23;20433;-67
2023/08/04 10:57:02;;;;;;;5.57;3.20;;;20.20;70.90;;;;;;6170581;23;20789;-67
2023/08/04 10:59:30;;;;;;;7.67;4.13;;;20.00;71.00;;;;;;6168721;23;20380;-68
2023/08/04 11:01:59;;;;;;;4.67;3.30;;;19.90;71.00;;;;;;6167353;23;20433;-68
2023/08/04 11:04:27;;;;;;;3.83;2.90;;;19.90;71.10;;;;;;6170355;23;20460;-67
2023/08/04 11:06:59;;;;;;;5.50;3.13;;;19.90;71.10;;;;;;6168067;23;20434;-67
2023/08/04 11:09:28;;;;;;;3.90;2.70;;;19.90;71.10;;;;;;6168755;23;20381;-68
2023/08/04 11:11:56;;;;;;;5.57;3.23;;;19.90;71.10;;;;;;6166901;23;20442;-68
2023/08/04 11:14:25;;;;;;;5.50;3.30;;;19.90;71.20;;;;;;6168048;23;21403;-68
2023/08/04 11:16:58;;;;;;;2.93;2.67;;;19.90;71.10;;;;;;6168410;23;20937;-68
2023/08/04 11:19:26;;;;;;;4.97;3.23;;;19.90;71.00;;;;;;6167339;23;20458;-68
2023/08/04 11:21:55;;;;;;;6.37;3.30;;;19.90;71.00;;;;;;6166235;23;20485;-68
2023/08/04 11:24:25;;;;;;;5.73;3.27;;;19.80;70.90;;;;;;6169106;23;20421;-67
2023/08/04 11:26:53;;;;;;;4.13;2.63;;;19.90;71.00;;;;;;6164383;23;20754;-68
2023/08/04 11:29:22;;;;;;;3.50;3.20;;;19.90;70.90;;;;;;6169120;23;20393;-67
2023/08/04 11:31:50;;;;;;;5.83;3.27;;;19.90;70.90;;;;;;6165604;23;20429;-68
2023/08/04 11:34:19;;;;;;;4.33;2.80;;;19.90;70.90;;;;;;6167677;23;20821;-68
2023/08/04 11:36:47;;;;;;;3.77;2.93;;;19.90;70.70;;;;;;6168588;23;20437;-68
2023/08/04 11:39:16;;;;;;;3.90;2.60;;;19.90;70.70;;;;;;6169475;23;20393;-68
2023/08/04 11:41:46;;;;;;;3.60;2.73;;;19.90;70.70;;;;;;6168614;23;20437;-68
2023/08/04 11:44:15;;;;;;;4.57;2.83;;;19.90;70.60;;;;;;6169047;23;20421;-68
2023/08/04 11:46:44;;;;;;;3.23;2.57;;;19.90;70.60;;;;;;6168108;23;20482;-68
2023/08/04 11:49:13;;;;;;;3.50;2.80;;;19.90;70.50;;;;;;6168511;23;20405;-68
2023/08/04 11:51:44;;;;;;;3.77;3.17;;;19.90;70.50;;;;;;6167144;23;20467;-68
2023/08/04 11:54:21;;;;;;;4.60;2.97;;;19.90;70.50;;;;;;6170817;23;20856;-68
2023/08/04 11:56:55;;;;;;;2.70;2.30;;;19.90;70.40;;;;;;6169054;23;20785;-68
2023/08/04 11:59:24;;;;;;;3.30;2.77;;;19.90;70.60;;;;;;6168736;23;20367;-68
2023/08/04 12:02:05;;;;;;;4.37;3.03;;;19.90;71.60;;;;;;6166204;23;20954;-68
2023/08/04 12:04:35;;;;;;;3.33;3.03;;;19.90;70.30;;;;;;6168105;23;20459;-67
2023/08/04 12:07:07;;;;;;;3.27;2.97;;;19.90;70.30;;;;;;6168398;23;20437;-67
2023/08/04 12:09:36;;;;;;;6.03;2.80;;;19.90;70.30;;;;;;6144368;23;20396;-68
2023/08/04 12:12:07;;;;;;;4.50;2.87;;;19.90;70.20;;;;;;6167144;23;20436;-67
2023/08/04 12:14:36;;;;;;;3.40;2.97;;;19.90;70.20;;;;;;6170045;23;20416;-67
2023/08/04 12:17:36;;;;;;;2.53;2.27;;;19.90;70.20;;;;;;6171744;23;20449;-67
2023/08/04 12:20:06;;;;;;;4.50;2.30;;;19.90;70.10;;;;;;6167796;23;20461;-67
2023/08/04 12:22:36;;;;;;;2.83;2.50;;;19.90;70.10;;;;;;6169077;23;20408;-68
2023/08/04 12:25:05;;;;;;;2.37;2.17;;;19.90;70.00;;;;;;6170530;23;20874;-67
2023/08/04 12:27:35;;;;;;;3.30;2.50;;;19.90;70.00;;;;;;6169361;23;20436;-68
2023/08/04 12:30:04;;;;;;;3.87;2.70;;;19.90;70.00;;;;;;6169114;23;20686;-67
2023/08/04 12:32:32;;;;;;;3.13;2.70;;;19.90;70.00;;;;;;6169243;23;20397;-67
2023/08/04 12:35:00;;;;;;;2.87;2.40;;;19.90;70.00;;;;;;6169238;23;20416;-67
2023/08/04 12:37:29;;;;;;;2.73;2.53;;;19.90;70.00;;;;;;6170549;23;20743;-67
2023/08/04 12:39:57;;;;;;;3.10;2.80;;;19.90;70.00;;;;;;6170436;23;20458;-67
2023/08/04 12:42:26;;;;;;;2.90;2.50;;;19.90;69.90;;;;;;6169395;23;20476;-67
2023/08/04 12:44:55;;;;;;;2.77;2.50;;;19.90;69.90;;;;;;6168447;23;20811;-67
2023/08/04 12:47:24;;;;;;;2.60;2.40;;;19.90;69.80;;;;;;6168395;23;20442;-67
2023/08/04 12:49:52;;;;;;;3.33;3.03;;;19.90;69.80;;;;;;6168806;23;20745;-67
2023/08/04 12:52:21;;;;;;;3.87;2.70;;;19.90;69.80;;;;;;6167745;23;20408;-66
2023/08/04 12:54:49;;;;;;;2.77;2.47;;;19.90;69.80;;;;;;6169575;23;20632;-66
2023/08/04 12:57:18;;;;;;;2.90;2.60;;;19.90;69.70;;;;;;6168965;23;20441;-67
2023/08/04 12:59:46;;;;;;;2.60;2.40;;;19.90;69.80;;;;;;6168221;23;20396;-67
2023/08/04 13:02:16;;;;;;;4.67;2.40;;;19.90;69.80;;;;;;6167836;23;20752;-67